createdAt,value
2023-03-26T00:01:46.921Z,99.99
2023-03-26T00:04:19.791Z,99.99
2023-03-26T00:06:49.492Z,99.99
2023-03-26T00:09:18.129Z,99.99
2023-03-26T00:11:47.452Z,99.99
2023-03-26T00:14:18.214Z,99.99
2023-03-26T00:16:47.496Z,99.99
2023-03-26T00:19:17.325Z,99.99
2023-03-26T00:21:46.167Z,99.99
2023-03-26T00:24:16.282Z,99.99
2023-03-26T00:26:48.923Z,99.99
2023-03-26T00:29:16.955Z,99.99
2023-03-26T00:31:46.376Z,99.99
2023-03-26T00:34:16.209Z,99.99
2023-03-26T00:36:46.920Z,99.99
2023-03-26T00:39:18.150Z,99.99
2023-03-26T00:41:46.364Z,99.99
2023-03-26T00:44:14.629Z,99.99
2023-03-26T00:46:43.488Z,99.99
2023-03-26T00:49:14.883Z,99.99
2023-03-26T00:51:45.472Z,99.99
2023-03-26T00:54:13.228Z,99.99
2023-03-26T00:56:41.671Z,99.99
2023-03-26T00:59:10.758Z,99.99
2023-03-26T01:01:39.799Z,99.99
2023-03-26T01:04:28.526Z,99.99
2023-03-26T01:07:01.637Z,99.99
2023-03-26T01:09:35.178Z,99.99
2023-03-26T01:12:06.639Z,99.99
2023-03-26T01:14:35.584Z,99.99
2023-03-26T01:17:06.042Z,99.99
2023-03-26T01:19:41.821Z,99.99
2023-03-26T01:22:14.690Z,99.99
2023-03-26T01:24:47.614Z,99.99
2023-03-26T01:27:33.667Z,99.99
2023-03-26T01:30:12.017Z,99.99
2023-03-26T01:32:51.338Z,99.99
2023-03-26T01:35:30.675Z,99.99
2023-03-26T01:38:10.899Z,99.99
2023-03-26T01:40:47.427Z,99.99
2023-03-26T01:43:24.873Z,99.99
2023-03-26T01:45:55.215Z,99.99
2023-03-26T01:48:30.707Z,99.99
2023-03-26T01:50:59.611Z,99.99
2023-03-26T01:53:28.152Z,99.99
2023-03-26T01:56:07.635Z,99.99
2023-03-26T01:58:41.198Z,99.99
2023-03-26T02:01:25.455Z,99.99
2023-03-26T02:04:17.188Z,99.99
2023-03-26T02:06:53.098Z,99.99
2023-03-26T02:09:26.062Z,99.99
2023-03-26T02:11:57.238Z,99.99
2023-03-26T02:14:26.122Z,99.99
2023-03-26T02:16:54.041Z,99.99
2023-03-26T02:19:25.040Z,99.99
2023-03-26T02:21:53.070Z,99.99
2023-03-26T02:24:22.076Z,99.99
2023-03-26T02:26:58.574Z,99.99
2023-03-26T02:29:27.705Z,99.99
2023-03-26T02:31:55.739Z,99.99
2023-03-26T02:34:24.752Z,99.99
2023-03-26T02:36:54.729Z,99.99
2023-03-26T02:39:23.398Z,99.99
2023-03-26T02:42:07.254Z,99.99
2023-03-26T02:44:41.014Z,99.99
2023-03-26T02:47:30.916Z,99.99
2023-03-26T02:50:17.650Z,99.99
2023-03-26T02:53:05.858Z,99.99
2023-03-26T02:55:37.972Z,99.99
2023-03-26T02:58:08.341Z,99.99
2023-03-26T03:00:38.515Z,99.99
2023-03-26T03:03:28.953Z,99.99
2023-03-26T03:05:58.111Z,99.99
2023-03-26T03:08:39.296Z,99.99
2023-03-26T03:11:36.225Z,99.99
2023-03-26T03:14:08.781Z,99.99
2023-03-26T03:16:37.437Z,99.99
2023-03-26T03:19:11.173Z,99.99
2023-03-26T03:21:41.287Z,99.99
2023-03-26T03:24:14.300Z,99.99
2023-03-26T03:26:47.760Z,99.99
2023-03-26T03:29:38.403Z,99.99
2023-03-26T03:32:27.674Z,99.99
2023-03-26T03:35:01.711Z,99.99
2023-03-26T03:37:30.688Z,99.99
2023-03-26T03:39:59.536Z,99.99
2023-03-26T03:42:31.867Z,99.99
2023-03-26T03:45:04.654Z,99.99
2023-03-26T03:48:06.887Z,99.99
2023-03-26T03:50:40.808Z,99.99
2023-03-26T03:53:22.322Z,99.99
2023-03-26T03:55:54.061Z,99.99
2023-03-26T03:58:31.609Z,99.99
2023-03-26T04:01:11.167Z,99.99
2023-03-26T04:03:59.604Z,99.99
2023-03-26T04:06:40.214Z,99.99
2023-03-26T04:09:11.236Z,99.99
2023-03-26T04:11:40.529Z,99.99
2023-03-26T04:14:32.642Z,99.99
2023-03-26T04:17:05.417Z,99.99
2023-03-26T04:19:37.572Z,99.99
2023-03-26T04:22:09.460Z,99.99
2023-03-26T04:24:46.682Z,99.99
2023-03-26T04:27:36.841Z,99.99
2023-03-26T04:30:36.541Z,99.99
2023-03-26T04:33:17.797Z,99.99
2023-03-26T04:35:48.732Z,99.99
2023-03-26T04:38:18.717Z,99.99
2023-03-26T04:40:51.456Z,99.99
2023-03-26T04:43:42.397Z,99.99
2023-03-26T04:46:24.061Z,99.99
2023-03-26T04:49:03.396Z,99.99
2023-03-26T04:51:40.034Z,99.99
2023-03-26T04:54:21.639Z,99.99
2023-03-26T04:57:00.412Z,99.99
2023-03-26T04:59:34.765Z,99.99
2023-03-26T05:02:10.049Z,99.99
2023-03-26T05:04:57.171Z,99.99
2023-03-26T05:07:30.188Z,99.99
2023-03-26T05:10:03.365Z,99.99
2023-03-26T05:13:04.253Z,99.99
2023-03-26T05:15:36.312Z,99.99
2023-03-26T05:18:11.628Z,99.99
2023-03-26T05:20:47.017Z,99.99
2023-03-26T05:23:15.769Z,99.99
2023-03-26T05:25:47.349Z,99.99
2023-03-26T05:28:24.876Z,99.99
2023-03-26T05:30:59.299Z,99.99
2023-03-26T05:33:32.642Z,99.99
2023-03-26T05:36:09.338Z,99.99
2023-03-26T05:38:57.990Z,99.99
2023-03-26T05:41:49.143Z,99.99
2023-03-26T05:44:19.468Z,99.99
2023-03-26T05:46:47.512Z,99.99
2023-03-26T05:49:22.393Z,99.99
2023-03-26T05:51:53.735Z,99.99
2023-03-26T05:54:53.130Z,99.99
2023-03-26T05:57:40.236Z,99.99
2023-03-26T06:00:29.549Z,99.99
2023-03-26T06:02:58.891Z,99.99
2023-03-26T06:05:50.429Z,99.99
2023-03-26T06:08:23.801Z,99.99
2023-03-26T06:10:59.884Z,99.99
2023-03-26T06:13:29.408Z,99.99
2023-03-26T06:15:58.944Z,99.99
2023-03-26T06:18:36.437Z,99.99
2023-03-26T06:21:25.381Z,99.99
2023-03-26T06:24:00.347Z,99.99
2023-03-26T06:26:47.925Z,99.99
2023-03-26T06:29:34.097Z,99.99
2023-03-26T06:32:26.963Z,99.99
2023-03-26T06:35:01.410Z,99.99
2023-03-26T06:37:29.828Z,99.99
2023-03-26T06:40:03.851Z,99.99
2023-03-26T06:43:08.302Z,99.99
2023-03-26T06:45:59.037Z,99.99
2023-03-26T06:48:33.282Z,99.99
2023-03-26T06:51:22.656Z,99.99
2023-03-26T06:54:23.039Z,99.99
2023-03-26T06:57:00.318Z,99.99
2023-03-26T06:59:37.298Z,99.94
2023-03-26T07:02:25.734Z,99.98
2023-03-26T07:05:13.057Z,99.99
2023-03-26T07:08:00.627Z,99.79
2023-03-26T07:10:48.244Z,99.61
2023-03-26T07:13:21.982Z,99.29
2023-03-26T07:16:09.102Z,99.25
2023-03-26T07:18:55.755Z,99.57
2023-03-26T07:21:28.318Z,99.06
2023-03-26T07:23:57.769Z,98.97
2023-03-26T07:26:57.377Z,98.84
2023-03-26T07:29:39.152Z,98.69
2023-03-26T07:32:29.856Z,97.01
2023-03-26T07:35:24.720Z,96.43
2023-03-26T07:38:27.420Z,97.09
2023-03-26T07:41:16.015Z,94.96
2023-03-26T07:44:27.634Z,94.40
2023-03-26T07:47:26.368Z,94.51
2023-03-26T07:50:18.316Z,94.07
2023-03-26T07:53:07.140Z,93.62
2023-03-26T07:56:01.450Z,93.76
2023-03-26T07:59:20.797Z,93.74
2023-03-26T08:02:44.277Z,95.47
2023-03-26T08:05:33.906Z,93.65
2023-03-26T08:08:16.609Z,94.14
2023-03-26T08:11:13.927Z,94.43
2023-03-26T08:14:03.583Z,93.49
2023-03-26T08:16:38.172Z,94.36
2023-03-26T08:19:17.313Z,94.29
2023-03-26T08:21:51.633Z,94.29
2023-03-26T08:24:23.910Z,93.44
2023-03-26T08:27:00.597Z,93.90
2023-03-26T08:29:39.034Z,94.36
2023-03-26T08:32:14.327Z,94.42
2023-03-26T08:34:42.304Z,92.93
2023-03-26T08:37:11.663Z,94.54
2023-03-26T08:39:42.418Z,93.07
2023-03-26T08:42:38.177Z,92.59
2023-03-26T08:45:33.245Z,91.72
2023-03-26T08:48:47.084Z,91.03
2023-03-26T08:51:54.892Z,89.47
2023-03-26T08:54:49.481Z,89.14
2023-03-26T08:57:55.258Z,88.36
2023-03-26T09:00:59.620Z,87.48
2023-03-26T09:03:47.840Z,88.16
2023-03-26T09:06:34.127Z,87.80
2023-03-26T09:09:38.342Z,89.56
2023-03-26T09:12:56.993Z,87.70
2023-03-26T09:15:48.008Z,87.08
2023-03-26T09:18:40.577Z,87.82
2023-03-26T09:21:37.254Z,87.30
2023-03-26T09:24:28.385Z,88.18
2023-03-26T09:27:08.884Z,87.42
2023-03-26T09:30:15.588Z,85.38
2023-03-26T09:33:15.190Z,86.68
2023-03-26T09:36:19.274Z,87.66
2023-03-26T09:38:55.380Z,88.08
2023-03-26T09:41:39.337Z,89.98
2023-03-26T09:44:52.134Z,88.33
2023-03-26T09:47:51.670Z,86.47
2023-03-26T09:50:30.952Z,86.69
2023-03-26T09:53:10.282Z,85.01
2023-03-26T09:55:51.422Z,83.77
2023-03-26T09:58:42.541Z,86.05
2023-03-26T10:01:21.129Z,86.70
2023-03-26T10:04:01.781Z,86.76
2023-03-26T10:06:46.409Z,84.95
